Terminal Aerodrome Forecast
Issued by NWS

Home | Current Version | Previous Version | Text Only | Print | Product List | Glossary On
Versions: 1 2 3 4 5 6 7 8 9 10 11 12 13
000
FTUS45 KGGW 260534
TAFSDY
TAF
KSDY 260534Z 2606/2706 VRB04KT P6SM BKN150
     FM261700 30008KT P6SM SCT200
     FM270300 34004KT P6SM FEW200=

USA.gov is the U.S. government's official web portal to all federal, state and local government web resources and services.